sensor_id;sensor_type;location;lat;lon;timestamp;pressure;altitude;pressure_sealevel;temperature;humidity
62038;BME280;47991;42.974;12.082;2023-01-31T00:46:31;97931.77;;;5.28;76.84
62038;BME280;47991;42.974;12.082;2023-01-31T00:48:57;97943.83;;;5.35;76.75
62038;BME280;47991;42.974;12.082;2023-01-31T00:51:25;97954.69;;;5.39;75.21
62038;BME280;47991;42.974;12.082;2023-01-31T00:53:52;97951.88;;;5.41;75.55
62038;BME280;47991;42.974;12.082;2023-01-31T00:56:21;97943.61;;;5.45;75.11
62038;BME280;47991;42.974;12.082;2023-01-31T00:58:48;97952.02;;;5.43;75.54
62038;BME280;47991;42.974;12.082;2023-01-31T01:01:20;97956.39;;;5.48;75.06
62038;BME280;47991;42.974;12.082;2023-01-31T01:03:47;97961.29;;;5.52;75.20
62038;BME280;47991;42.974;12.082;2023-01-31T01:06:15;97958.46;;;5.54;75.01
62038;BME280;47991;42.974;12.082;2023-01-31T01:08:42;97963.17;;;5.60;74.74
62038;BME280;47991;42.974;12.082;2023-01-31T01:11:10;97956.11;;;5.66;74.54
62038;BME280;47991;42.974;12.082;2023-01-31T01:13:37;97955.08;;;5.65;74.82
62038;BME280;47991;42.974;12.082;2023-01-31T01:16:08;97957.52;;;5.67;74.65
62038;BME280;47991;42.974;12.082;2023-01-31T01:18:36;97960.46;;;5.73;74.48
62038;BME280;47991;42.974;12.082;2023-01-31T01:21:18;97954.30;;;5.76;74.47
62038;BME280;47991;42.974;12.082;2023-01-31T01:23:45;97951.33;;;5.75;74.79
62038;BME280;47991;42.974;12.082;2023-01-31T01:26:17;97955.05;;;5.70;74.35
62038;BME280;47991;42.974;12.082;2023-01-31T01:28:45;97956.09;;;5.71;74.43
62038;BME280;47991;42.974;12.082;2023-01-31T01:31:13;97958.19;;;5.72;74.75
62038;BME280;47991;42.974;12.082;2023-01-31T01:33:41;97954.16;;;5.71;74.67
62038;BME280;47991;42.974;12.082;2023-01-31T01:36:10;97952.95;;;5.69;74.66
62038;BME280;47991;42.974;12.082;2023-01-31T01:38:44;97955.26;;;5.63;74.71
62038;BME280;47991;42.974;12.082;2023-01-31T01:41:11;97947.73;;;5.59;74.40
62038;BME280;47991;42.974;12.082;2023-01-31T01:43:59;97945.29;;;5.58;74.59
62038;BME280;47991;42.974;12.082;2023-01-31T01:46:32;97940.80;;;5.47;74.94
62038;BME280;47991;42.974;12.082;2023-01-31T01:51:56;97945.59;;;5.34;74.92
62038;BME280;47991;42.974;12.082;2023-01-31T01:54:34;97949.64;;;5.29;74.79
62038;BME280;47991;42.974;12.082;2023-01-31T01:57:03;97954.77;;;5.17;76.62
62038;BME280;47991;42.974;12.082;2023-01-31T01:59:36;97963.39;;;5.06;76.50
62038;BME280;47991;42.974;12.082;2023-01-31T02:02:04;97968.33;;;5.02;75.66
62038;BME280;47991;42.974;12.082;2023-01-31T02:04:34;97976.20;;;5.01;75.16
62038;BME280;47991;42.974;12.082;2023-01-31T02:07:02;97976.73;;;4.98;75.35
62038;BME280;47991;42.974;12.082;2023-01-31T02:09:40;97974.31;;;4.88;76.13
62038;BME280;47991;42.974;12.082;2023-01-31T02:12:11;97974.67;;;4.77;77.26
62038;BME280;47991;42.974;12.082;2023-01-31T02:14:40;97980.30;;;4.77;77.36
62038;BME280;47991;42.974;12.082;2023-01-31T02:17:16;97982.92;;;4.80;77.24
62038;BME280;47991;42.974;12.082;2023-01-31T02:20:05;97968.02;;;4.84;77.16
62038;BME280;47991;42.974;12.082;2023-01-31T02:28:30;97988.71;;;4.71;75.70
62038;BME280;47991;42.974;12.082;2023-01-31T02:40:33;97996.60;;;4.60;75.58
62038;BME280;47991;42.974;12.082;2023-01-31T02:43:31;98004.30;;;4.65;75.80
62038;BME280;47991;42.974;12.082;2023-01-31T02:46:23;98013.06;;;4.66;75.47
62038;BME280;47991;42.974;12.082;2023-01-31T02:49:04;98004.13;;;4.67;75.22
62038;BME280;47991;42.974;12.082;2023-01-31T02:51:42;98007.98;;;4.69;75.47
62038;BME280;47991;42.974;12.082;2023-01-31T02:54:32;98016.55;;;4.68;75.30
62038;BME280;47991;42.974;12.082;2023-01-31T02:57:20;98021.81;;;4.64;75.69
62038;BME280;47991;42.974;12.082;2023-01-31T02:59:47;98023.04;;;4.56;75.98
62038;BME280;47991;42.974;12.082;2023-01-31T03:02:14;98025.48;;;4.51;75.99
62038;BME280;47991;42.974;12.082;2023-01-31T03:04:42;98022.70;;;4.51;75.45
62038;BME280;47991;42.974;12.082;2023-01-31T03:07:29;98029.35;;;4.44;76.61
62038;BME280;47991;42.974;12.082;2023-01-31T03:10:06;98029.69;;;4.32;76.09
62038;BME280;47991;42.974;12.082;2023-01-31T03:13:19;98029.34;;;4.26;75.97
62038;BME280;47991;42.974;12.082;2023-01-31T03:16:16;98035.27;;;4.12;76.02
62038;BME280;47991;42.974;12.082;2023-01-31T03:19:28;98039.47;;;4.09;76.22
62038;BME280;47991;42.974;12.082;2023-01-31T03:22:30;98040.00;;;4.12;76.14
62038;BME280;47991;42.974;12.082;2023-01-31T03:24:59;98038.23;;;4.10;76.15
62038;BME280;47991;42.974;12.082;2023-01-31T03:27:28;98038.60;;;4.09;76.04
62038;BME280;47991;42.974;12.082;2023-01-31T03:30:00;98039.47;;;4.09;76.30
62038;BME280;47991;42.974;12.082;2023-01-31T03:32:38;98041.91;;;4.07;76.23
62038;BME280;47991;42.974;12.082;2023-01-31T03:35:07;98041.91;;;4.04;76.85
62038;BME280;47991;42.974;12.082;2023-01-31T03:37:46;98042.60;;;4.03;76.89
62038;BME280;47991;42.974;12.082;2023-01-31T03:40:24;98047.85;;;4.00;77.14
62038;BME280;47991;42.974;12.082;2023-01-31T03:43:13;98047.09;;;3.78;78.07
62038;BME280;47991;42.974;12.082;2023-01-31T03:45:56;98053.91;;;3.86;77.37
62038;BME280;47991;42.974;12.082;2023-01-31T03:48:30;98059.54;;;3.91;78.44
62038;BME280;47991;42.974;12.082;2023-01-31T03:51:01;98067.60;;;3.95;77.28
62038;BME280;47991;42.974;12.082;2023-01-31T03:54:10;98070.76;;;3.98;77.22
62038;BME280;47991;42.974;12.082;2023-01-31T03:56:45;98078.80;;;3.95;76.64
62038;BME280;47991;42.974;12.082;2023-01-31T03:59:17;98084.01;;;3.83;77.10
62038;BME280;47991;42.974;12.082;2023-01-31T04:01:47;98079.61;;;3.73;77.08
62038;BME280;47991;42.974;12.082;2023-01-31T04:04:20;98080.67;;;3.81;76.86
62038;BME280;47991;42.974;12.082;2023-01-31T04:06:49;98077.72;;;3.88;76.68
62038;BME280;47991;42.974;12.082;2023-01-31T04:09:16;98081.95;;;3.96;76.71
62038;BME280;47991;42.974;12.082;2023-01-31T04:11:46;98081.95;;;3.99;76.49
62038;BME280;47991;42.974;12.082;2023-01-31T04:14:14;98085.81;;;4.01;76.19
62038;BME280;47991;42.974;12.082;2023-01-31T04:16:41;98088.77;;;3.92;75.97
62038;BME280;47991;42.974;12.082;2023-01-31T04:19:07;98079.21;;;3.66;76.45
62038;BME280;47991;42.974;12.082;2023-01-31T04:21:34;98070.19;;;3.39;76.74
62038;BME280;47991;42.974;12.082;2023-01-31T04:24:01;98074.49;;;3.29;77.08
62038;BME280;47991;42.974;12.082;2023-01-31T04:26:27;98074.81;;;3.23;77.29
62038;BME280;47991;42.974;12.082;2023-01-31T04:28:54;98075.13;;;3.16;77.54
62038;BME280;47991;42.974;12.082;2023-01-31T04:31:20;98074.93;;;3.12;76.98
62038;BME280;47991;42.974;12.082;2023-01-31T04:33:47;98074.86;;;3.03;78.28
62038;BME280;47991;42.974;12.082;2023-01-31T04:36:13;98069.92;;;2.96;77.49
62038;BME280;47991;42.974;12.082;2023-01-31T04:38:40;98073.86;;;2.83;78.63
62038;BME280;47991;42.974;12.082;2023-01-31T04:41:07;98079.07;;;2.58;78.74
62038;BME280;47991;42.974;12.082;2023-01-31T04:43:33;98080.92;;;2.49;78.89
62038;BME280;47991;42.974;12.082;2023-01-31T04:46:00;98082.77;;;2.41;79.02
62038;BME280;47991;42.974;12.082;2023-01-31T04:48:26;98077.73;;;2.45;78.67
62038;BME280;47991;42.974;12.082;2023-01-31T04:50:53;98074.85;;;2.56;78.60
62038;BME280;47991;42.974;12.082;2023-01-31T04:53:19;98074.34;;;2.57;78.44
62038;BME280;47991;42.974;12.082;2023-01-31T04:55:47;98071.52;;;2.52;78.73
62038;BME280;47991;42.974;12.082;2023-01-31T04:58:13;98073.22;;;2.46;78.22
62038;BME280;47991;42.974;12.082;2023-01-31T05:00:40;98074.33;;;2.34;78.36
62038;BME280;47991;42.974;12.082;2023-01-31T05:03:07;98085.91;;;2.24;78.38
62038;BME280;47991;42.974;12.082;2023-01-31T05:05:42;98090.06;;;2.19;78.36
62038;BME280;47991;42.974;12.082;2023-01-31T05:08:08;98086.55;;;2.17;78.58
62038;BME280;47991;42.974;12.082;2023-01-31T05:10:35;98089.15;;;2.16;78.63
62038;BME280;47991;42.974;12.082;2023-01-31T05:13:02;98094.54;;;2.15;78.90
62038;BME280;47991;42.974;12.082;2023-01-31T05:15:29;98092.92;;;2.09;79.16
62038;BME280;47991;42.974;12.082;2023-01-31T05:17:55;98088.43;;;2.14;79.54
62038;BME280;47991;42.974;12.082;2023-01-31T05:20:33;98092.95;;;2.11;79.26
62038;BME280;47991;42.974;12.082;2023-01-31T05:23:02;98099.09;;;1.99;79.07
62038;BME280;47991;42.974;12.082;2023-01-31T05:25:29;98098.15;;;1.94;78.49
62038;BME280;47991;42.974;12.082;2023-01-31T05:27:56;98100.27;;;1.81;79.02
62038;BME280;47991;42.974;12.082;2023-01-31T05:30:22;98105.02;;;1.84;78.89
62038;BME280;47991;42.974;12.082;2023-01-31T05:32:49;98106.42;;;1.85;78.14
62038;BME280;47991;42.974;12.082;2023-01-31T05:35:16;98108.95;;;1.63;78.04
62038;BME280;47991;42.974;12.082;2023-01-31T05:37:43;98100.30;;;1.40;78.28
62038;BME280;47991;42.974;12.082;2023-01-31T05:40:13;98102.23;;;1.30;78.83
62038;BME280;47991;42.974;12.082;2023-01-31T05:42:40;98104.54;;;1.31;79.47
62038;BME280;47991;42.974;12.082;2023-01-31T05:45:08;98107.70;;;1.35;78.71
62038;BME280;47991;42.974;12.082;2023-01-31T05:47:36;98107.79;;;1.40;79.50
62038;BME280;47991;42.974;12.082;2023-01-31T05:50:03;98116.73;;;1.44;78.92
62038;BME280;47991;42.974;12.082;2023-01-31T05:52:30;98120.59;;;1.47;79.28
62038;BME280;47991;42.974;12.082;2023-01-31T05:54:56;98118.59;;;1.41;78.97
62038;BME280;47991;42.974;12.082;2023-01-31T05:57:23;98122.08;;;1.41;79.05
62038;BME280;47991;42.974;12.082;2023-01-31T05:59:49;98126.28;;;1.42;78.93
62038;BME280;47991;42.974;12.082;2023-01-31T06:02:16;98127.98;;;1.27;78.59
62038;BME280;47991;42.974;12.082;2023-01-31T06:04:43;98130.74;;;1.13;78.82
62038;BME280;47991;42.974;12.082;2023-01-31T06:07:09;98136.45;;;1.10;78.79
62038;BME280;47991;42.974;12.082;2023-01-31T06:09:36;98138.05;;;1.02;78.68
62038;BME280;47991;42.974;12.082;2023-01-31T06:12:04;98141.63;;;0.96;78.43
62038;BME280;47991;42.974;12.082;2023-01-31T06:14:31;98144.35;;;0.91;78.54
62038;BME280;47991;42.974;12.082;2023-01-31T06:16:58;98143.09;;;0.89;78.70
62038;BME280;47991;42.974;12.082;2023-01-31T06:19:24;98144.90;;;0.93;78.97
62038;BME280;47991;42.974;12.082;2023-01-31T06:21:51;98151.09;;;1.00;79.08
62038;BME280;47991;42.974;12.082;2023-01-31T06:24:18;98150.24;;;1.02;79.99
62038;BME280;47991;42.974;12.082;2023-01-31T06:26:44;98156.56;;;1.05;79.52
62038;BME280;47991;42.974;12.082;2023-01-31T06:29:11;98162.23;;;1.11;79.06
62038;BME280;47991;42.974;12.082;2023-01-31T06:31:37;98165.84;;;1.09;79.25
62038;BME280;47991;42.974;12.082;2023-01-31T06:34:04;98167.60;;;0.98;78.80
62038;BME280;47991;42.974;12.082;2023-01-31T06:36:31;98172.92;;;0.83;78.81
62038;BME280;47991;42.974;12.082;2023-01-31T06:38:59;98175.35;;;0.72;78.96
62038;BME280;47991;42.974;12.082;2023-01-31T06:41:25;98178.23;;;0.68;79.39
62038;BME280;47991;42.974;12.082;2023-01-31T06:43:52;98183.13;;;0.69;78.98
62038;BME280;47991;42.974;12.082;2023-01-31T06:46:19;98184.77;;;0.73;79.11
62038;BME280;47991;42.974;12.082;2023-01-31T06:48:45;98182.17;;;0.84;79.35
62038;BME280;47991;42.974;12.082;2023-01-31T06:51:14;98190.88;;;0.84;79.61
62038;BME280;47991;42.974;12.082;2023-01-31T06:53:41;98194.38;;;0.86;79.54
62038;BME280;47991;42.974;12.082;2023-01-31T06:56:08;98197.86;;;0.96;78.99
62038;BME280;47991;42.974;12.082;2023-01-31T06:58:35;98200.00;;;1.21;78.42
62038;BME280;47991;42.974;12.082;2023-01-31T07:01:09;98204.19;;;1.45;78.50
62038;BME280;47991;42.974;12.082;2023-01-31T07:03:36;98205.64;;;2.14;77.54
62038;BME280;47991;42.974;12.082;2023-01-31T07:06:05;98202.38;;;2.68;76.91
62038;BME280;47991;42.974;12.082;2023-01-31T07:08:32;98205.71;;;3.07;76.27
62038;BME280;47991;42.974;12.082;2023-01-31T07:10:59;98204.40;;;3.18;75.68
62038;BME280;47991;42.974;12.082;2023-01-31T07:13:29;98209.63;;;2.95;74.91
62038;BME280;47991;42.974;12.082;2023-01-31T07:15:55;98211.92;;;3.17;75.14
62038;BME280;47991;42.974;12.082;2023-01-31T07:18:22;98213.38;;;3.24;74.52
62038;BME280;47991;42.974;12.082;2023-01-31T07:20:49;98219.78;;;3.18;75.22
62038;BME280;47991;42.974;12.082;2023-01-31T07:23:19;98216.23;;;3.11;75.04
62038;BME280;47991;42.974;12.082;2023-01-31T07:25:46;98214.25;;;3.04;74.97
62038;BME280;47991;42.974;12.082;2023-01-31T07:28:12;98215.30;;;3.04;75.42
62038;BME280;47991;42.974;12.082;2023-01-31T07:30:39;98222.92;;;3.15;75.45
62038;BME280;47991;42.974;12.082;2023-01-31T07:33:10;98223.67;;;3.25;75.16
62038;BME280;47991;42.974;12.082;2023-01-31T07:35:36;98230.06;;;3.35;75.21
62038;BME280;47991;42.974;12.082;2023-01-31T07:38:03;98239.81;;;3.54;75.08
62038;BME280;47991;42.974;12.082;2023-01-31T07:40:29;98241.76;;;3.57;74.70
62038;BME280;47991;42.974;12.082;2023-01-31T07:42:57;98249.62;;;3.56;74.75
62038;BME280;47991;42.974;12.082;2023-01-31T07:45:24;98256.99;;;3.62;75.07
62038;BME280;47991;42.974;12.082;2023-01-31T07:47:51;98261.64;;;3.75;74.91
62038;BME280;47991;42.974;12.082;2023-01-31T07:50:18;98255.05;;;3.85;74.56
62038;BME280;47991;42.974;12.082;2023-01-31T07:52:45;98255.20;;;3.82;74.67
62038;BME280;47991;42.974;12.082;2023-01-31T07:55:14;98261.91;;;3.89;74.89
62038;BME280;47991;42.974;12.082;2023-01-31T07:57:40;98263.91;;;4.04;74.62
62038;BME280;47991;42.974;12.082;2023-01-31T08:00:07;98271.23;;;3.99;74.90
62038;BME280;47991;42.974;12.082;2023-01-31T08:02:55;98278.98;;;4.04;75.75
62038;BME280;47991;42.974;12.082;2023-01-31T08:05:40;98280.41;;;4.15;75.35
62038;BME280;47991;42.974;12.082;2023-01-31T08:08:10;98285.00;;;4.22;76.37
62038;BME280;47991;42.974;12.082;2023-01-31T08:10:37;98282.62;;;4.34;76.73
62038;BME280;47991;42.974;12.082;2023-01-31T08:13:04;98286.70;;;4.44;76.88
62038;BME280;47991;42.974;12.082;2023-01-31T08:15:32;98291.80;;;4.53;76.69
62038;BME280;47991;42.974;12.082;2023-01-31T08:17:59;98291.86;;;4.67;76.79
62038;BME280;47991;42.974;12.082;2023-01-31T08:20:25;98299.27;;;4.83;76.60
62038;BME280;47991;42.974;12.082;2023-01-31T08:22:52;98302.83;;;5.00;76.23
62038;BME280;47991;42.974;12.082;2023-01-31T08:25:19;98302.84;;;5.11;76.04
62038;BME280;47991;42.974;12.082;2023-01-31T08:27:45;98299.53;;;5.25;75.43
62038;BME280;47991;42.974;12.082;2023-01-31T08:30:12;98298.68;;;5.42;74.67
62038;BME280;47991;42.974;12.082;2023-01-31T08:32:39;98306.22;;;5.50;74.90
62038;BME280;47991;42.974;12.082;2023-01-31T08:35:05;98309.57;;;5.58;74.68
62038;BME280;47991;42.974;12.082;2023-01-31T08:37:33;98312.36;;;5.69;74.38
62038;BME280;47991;42.974;12.082;2023-01-31T08:40:00;98315.69;;;5.87;74.71
62038;BME280;47991;42.974;12.082;2023-01-31T08:42:26;98322.70;;;6.19;73.91
62038;BME280;47991;42.974;12.082;2023-01-31T08:44:52;98324.27;;;6.28;73.20
62038;BME280;47991;42.974;12.082;2023-01-31T08:47:20;98326.34;;;6.38;73.30
62038;BME280;47991;42.974;12.082;2023-01-31T08:49:46;98328.41;;;6.51;72.57
62038;BME280;47991;42.974;12.082;2023-01-31T08:52:13;98331.04;;;6.55;71.40
62038;BME280;47991;42.974;12.082;2023-01-31T08:54:40;98335.27;;;6.54;71.52
62038;BME280;47991;42.974;12.082;2023-01-31T08:57:06;98342.28;;;6.55;71.06
62038;BME280;47991;42.974;12.082;2023-01-31T08:59:33;98344.73;;;6.59;70.31
62038;BME280;47991;42.974;12.082;2023-01-31T09:01:59;98352.05;;;6.78;70.77
62038;BME280;47991;42.974;12.082;2023-01-31T09:04:26;98349.55;;;6.88;67.15
62038;BME280;47991;42.974;12.082;2023-01-31T09:06:52;98351.42;;;7.01;66.73
62038;BME280;47991;42.974;12.082;2023-01-31T09:09:20;98357.05;;;6.99;65.90
62038;BME280;47991;42.974;12.082;2023-01-31T09:12:12;98353.29;;;7.15;66.47
62038;BME280;47991;42.974;12.082;2023-01-31T09:14:39;98349.21;;;7.46;64.85
62038;BME280;47991;42.974;12.082;2023-01-31T09:17:05;98349.01;;;8.68;63.83
62038;BME280;47991;42.974;12.082;2023-01-31T09:19:33;98348.90;;;10.43;58.08
62038;BME280;47991;42.974;12.082;2023-01-31T09:21:59;98341.27;;;11.73;53.05
62038;BME280;47991;42.974;12.082;2023-01-31T09:24:26;98338.90;;;12.06;52.18
62038;BME280;47991;42.974;12.082;2023-01-31T09:26:52;98344.23;;;11.68;53.55
62038;BME280;47991;42.974;12.082;2023-01-31T09:29:20;98351.05;;;10.99;55.85
62038;BME280;47991;42.974;12.082;2023-01-31T09:31:50;98354.88;;;10.66;58.78
62038;BME280;47991;42.974;12.082;2023-01-31T09:34:17;98358.89;;;10.41;55.90
62038;BME280;47991;42.974;12.082;2023-01-31T09:36:44;98362.92;;;10.21;55.90
62038;BME280;47991;42.974;12.082;2023-01-31T09:39:11;98367.38;;;10.41;60.03
62038;BME280;47991;42.974;12.082;2023-01-31T09:41:43;98371.80;;;10.51;57.03
62038;BME280;47991;42.974;12.082;2023-01-31T09:44:25;98372.35;;;10.49;52.97
62038;BME280;47991;42.974;12.082;2023-01-31T09:47:08;98380.98;;;10.97;52.50
62038;BME280;47991;42.974;12.082;2023-01-31T09:49:55;98374.15;;;11.67;50.48
62038;BME280;47991;42.974;12.082;2023-01-31T09:52:24;98378.23;;;11.99;49.07
62038;BME280;47991;42.974;12.082;2023-01-31T09:54:53;98374.31;;;12.88;50.60
62038;BME280;47991;42.974;12.082;2023-01-31T09:57:41;98373.46;;;13.55;46.72
62038;BME280;47991;42.974;12.082;2023-01-31T10:00:15;98377.35;;;13.50;44.24
62038;BME280;47991;42.974;12.082;2023-01-31T10:05:49;98376.18;;;14.50;41.90
62038;BME280;47991;42.974;12.082;2023-01-31T10:11:06;98365.40;;;16.88;35.86
62038;BME280;47991;42.974;12.082;2023-01-31T10:14:00;98359.02;;;18.03;33.48
62038;BME280;47991;42.974;12.082;2023-01-31T10:16:35;98358.75;;;19.57;31.67
62038;BME280;47991;42.974;12.082;2023-01-31T10:19:13;98355.90;;;20.05;31.88
62038;BME280;47991;42.974;12.082;2023-01-31T10:21:50;98356.43;;;19.79;30.61
62038;BME280;47991;42.974;12.082;2023-01-31T10:24:30;98357.30;;;20.39;30.60
62038;BME280;47991;42.974;12.082;2023-01-31T10:27:04;98349.45;;;20.78;28.97
62038;BME280;47991;42.974;12.082;2023-01-31T10:29:40;98345.57;;;20.86;28.68
62038;BME280;47991;42.974;12.082;2023-01-31T10:32:24;98345.15;;;20.84;27.40
62038;BME280;47991;42.974;12.082;2023-01-31T10:35:06;98339.61;;;21.50;26.31
62038;BME280;47991;42.974;12.082;2023-01-31T10:37:43;98335.11;;;21.21;26.31
62038;BME280;47991;42.974;12.082;2023-01-31T10:42:50;98338.63;;;19.54;25.82
62038;BME280;47991;42.974;12.082;2023-01-31T10:45:24;98340.27;;;19.37;28.89
62038;BME280;47991;42.974;12.082;2023-01-31T10:48:04;98344.35;;;18.35;30.41
62038;BME280;47991;42.974;12.082;2023-01-31T10:50:51;98344.05;;;16.73;30.65
62038;BME280;47991;42.974;12.082;2023-01-31T10:53:46;98349.86;;;15.31;33.84
62038;BME280;47991;42.974;12.082;2023-01-31T10:56:25;98346.42;;;14.99;36.60
62038;BME280;47991;42.974;12.082;2023-01-31T10:58:55;98339.34;;;14.64;35.74
62038;BME280;47991;42.974;12.082;2023-01-31T11:01:23;98332.42;;;13.99;35.76
62038;BME280;47991;42.974;12.082;2023-01-31T11:03:53;98336.23;;;13.70;36.35
62038;BME280;47991;42.974;12.082;2023-01-31T11:06:21;98333.40;;;13.64;38.11
62038;BME280;47991;42.974;12.082;2023-01-31T11:09:08;98336.60;;;13.64;36.67
62038;BME280;47991;42.974;12.082;2023-01-31T11:12:01;98330.23;;;13.85;34.49
62038;BME280;47991;42.974;12.082;2023-01-31T11:14:28;98321.27;;;15.28;34.19
62038;BME280;47991;42.974;12.082;2023-01-31T11:17:17;98319.96;;;15.94;33.60
62038;BME280;47991;42.974;12.082;2023-01-31T11:19:51;98315.80;;;15.86;33.28
62038;BME280;47991;42.974;12.082;2023-01-31T11:22:27;98315.46;;;15.45;32.68
62038;BME280;47991;42.974;12.082;2023-01-31T11:24:57;98311.38;;;15.63;33.35
62038;BME280;47991;42.974;12.082;2023-01-31T11:27:37;98316.24;;;15.11;33.17
62038;BME280;47991;42.974;12.082;2023-01-31T11:32:47;98314.98;;;14.16;35.48
62038;BME280;47991;42.974;12.082;2023-01-31T11:37:57;98316.57;;;13.68;36.59
62038;BME280;47991;42.974;12.082;2023-01-31T11:40:36;98315.95;;;13.37;37.15
62038;BME280;47991;42.974;12.082;2023-01-31T11:43:28;98317.80;;;13.33;36.55
62038;BME280;47991;42.974;12.082;2023-01-31T11:46:17;98308.66;;;13.31;37.11
62038;BME280;47991;42.974;12.082;2023-01-31T11:48:44;98306.17;;;13.12;36.41
62038;BME280;47991;42.974;12.082;2023-01-31T11:51:24;98308.40;;;13.09;36.47
62038;BME280;47991;42.974;12.082;2023-01-31T11:53:52;98298.28;;;13.03;34.97
62038;BME280;47991;42.974;12.082;2023-01-31T11:56:23;98297.27;;;12.77;34.32
62038;BME280;47991;42.974;12.082;2023-01-31T11:58:57;98297.35;;;12.75;35.27
62038;BME280;47991;42.974;12.082;2023-01-31T12:01:27;98300.14;;;12.64;34.93
62038;BME280;47991;42.974;12.082;2023-01-31T12:03:58;98297.91;;;12.61;35.04
62038;BME280;47991;42.974;12.082;2023-01-31T12:06:37;98292.52;;;12.51;34.96
62038;BME280;47991;42.974;12.082;2023-01-31T12:09:25;98292.34;;;12.44;35.13
62038;BME280;47991;42.974;12.082;2023-01-31T12:11:55;98287.56;;;12.69;34.47
62038;BME280;47991;42.974;12.082;2023-01-31T12:14:23;98291.52;;;12.73;31.87
62038;BME280;47991;42.974;12.082;2023-01-31T12:16:53;98291.70;;;12.42;32.08
62038;BME280;47991;42.974;12.082;2023-01-31T12:23:11;98298.52;;;12.51;33.53
62038;BME280;47991;42.974;12.082;2023-01-31T12:34:39;98289.00;;;12.56;31.12
62038;BME280;47991;42.974;12.082;2023-01-31T12:40:24;98292.80;;;12.00;31.13
62038;BME280;47991;42.974;12.082;2023-01-31T12:43:03;98290.23;;;11.96;30.64
62038;BME280;47991;42.974;12.082;2023-01-31T12:51:21;98286.92;;;11.94;32.24
62038;BME280;47991;42.974;12.082;2023-01-31T12:54:14;98285.58;;;12.05;30.74
62038;BME280;47991;42.974;12.082;2023-01-31T13:07:00;98269.77;;;12.78;33.98
62038;BME280;47991;42.974;12.082;2023-01-31T13:09:33;98264.25;;;12.78;35.31
62038;BME280;47991;42.974;12.082;2023-01-31T13:12:08;98266.30;;;12.87;36.86
62038;BME280;47991;42.974;12.082;2023-01-31T13:14:44;98260.55;;;13.07;37.09
62038;BME280;47991;42.974;12.082;2023-01-31T13:17:16;98258.02;;;13.20;37.06
62038;BME280;47991;42.974;12.082;2023-01-31T13:20:15;98257.12;;;13.14;37.08
62038;BME280;47991;42.974;12.082;2023-01-31T13:22:55;98267.20;;;13.10;37.76
62038;BME280;47991;42.974;12.082;2023-01-31T13:28:27;98267.08;;;13.20;36.09
62038;BME280;47991;42.974;12.082;2023-01-31T13:30:59;98265.85;;;13.25;36.67
62038;BME280;47991;42.974;12.082;2023-01-31T13:36:36;98256.29;;;13.42;35.41
62038;BME280;47991;42.974;12.082;2023-01-31T13:39:42;98259.67;;;13.48;36.03
62038;BME280;47991;42.974;12.082;2023-01-31T13:42:13;98265.42;;;13.52;36.71
62038;BME280;47991;42.974;12.082;2023-01-31T13:44:41;98263.54;;;13.48;36.05
62038;BME280;47991;42.974;12.082;2023-01-31T13:47:13;98262.66;;;13.48;36.62
62038;BME280;47991;42.974;12.082;2023-01-31T13:50:08;98264.39;;;13.45;35.49
62038;BME280;47991;42.974;12.082;2023-01-31T13:52:48;98267.38;;;13.40;35.70
62038;BME280;47991;42.974;12.082;2023-01-31T13:55:38;98272.24;;;13.49;36.65
62038;BME280;47991;42.974;12.082;2023-01-31T13:58:14;98275.25;;;13.49;35.03
62038;BME280;47991;42.974;12.082;2023-01-31T14:00:48;98278.36;;;13.52;34.64
62038;BME280;47991;42.974;12.082;2023-01-31T14:03:20;98282.05;;;13.70;34.40
62038;BME280;47991;42.974;12.082;2023-01-31T14:05:58;98282.15;;;13.83;35.49
62038;BME280;47991;42.974;12.082;2023-01-31T14:11:44;98282.68;;;14.09;34.62
62038;BME280;47991;42.974;12.082;2023-01-31T14:13:49;98284.11;;;14.25;34.24
62038;BME280;47991;42.974;12.082;2023-01-31T14:19:07;98281.26;;;14.30;32.87
62038;BME280;47991;42.974;12.082;2023-01-31T14:25:09;98285.04;;;14.19;33.55
62038;BME280;47991;42.974;12.082;2023-01-31T14:27:16;98285.75;;;13.76;32.91
62038;BME280;47991;42.974;12.082;2023-01-31T14:29:45;98288.41;;;13.76;33.24
62038;BME280;47991;42.974;12.082;2023-01-31T14:32:15;98286.31;;;13.80;34.91
62038;BME280;47991;42.974;12.082;2023-01-31T14:34:48;98286.68;;;13.80;34.83
62038;BME280;47991;42.974;12.082;2023-01-31T14:37:35;98283.58;;;13.72;35.15
62038;BME280;47991;42.974;12.082;2023-01-31T14:40:28;98284.56;;;13.63;34.26
62038;BME280;47991;42.974;12.082;2023-01-31T14:43:25;98283.30;;;13.47;34.37
62038;BME280;47991;42.974;12.082;2023-01-31T14:49:20;98284.14;;;13.19;34.02
62038;BME280;47991;42.974;12.082;2023-01-31T14:55:22;98284.78;;;13.16;35.28
62038;BME280;47991;42.974;12.082;2023-01-31T14:57:55;98282.27;;;13.16;34.53
62038;BME280;47991;42.974;12.082;2023-01-31T15:00:33;98280.37;;;13.09;33.08
62038;BME280;47991;42.974;12.082;2023-01-31T15:03:30;98281.02;;;12.87;32.18
62038;BME280;47991;42.974;12.082;2023-01-31T15:06:13;98287.03;;;12.75;33.90
62038;BME280;47991;42.974;12.082;2023-01-31T15:08:46;98291.50;;;12.68;33.28
62038;BME280;47991;42.974;12.082;2023-01-31T15:11:37;98296.98;;;12.63;34.88
62038;BME280;47991;42.974;12.082;2023-01-31T15:14:25;98293.88;;;12.65;34.01
62038;BME280;47991;42.974;12.082;2023-01-31T15:19:52;98296.13;;;12.67;34.19
62038;BME280;47991;42.974;12.082;2023-01-31T15:22:21;98295.96;;;12.48;33.41
62038;BME280;47991;42.974;12.082;2023-01-31T15:24:53;98296.94;;;12.38;34.23
62038;BME280;47991;42.974;12.082;2023-01-31T15:27:28;98294.40;;;12.20;32.77
62038;BME280;47991;42.974;12.082;2023-01-31T15:30:00;98295.23;;;11.87;32.71
62038;BME280;47991;42.974;12.082;2023-01-31T15:38:11;98310.80;;;11.35;33.49
62038;BME280;47991;42.974;12.082;2023-01-31T15:40:41;98316.16;;;11.25;33.27
62038;BME280;47991;42.974;12.082;2023-01-31T15:43:21;98318.03;;;11.20;33.79